Allendale, SC

5:42 PM EST on March 06, 2015 (GMT -0500)
Joe Miley Road | Change Station
CLOSE
Current Station
Personal Weather Station
Location: Brunson, SC
Elevation: 130 ft
Nearby Weather Stations
Active Advisory: Freeze Warning

Elev 130 ft 32.94 °N, 81.13 °W | Updated 33 seconds ago

Overcast
Overcast
48.2 °F
Feels Like 47 °F
N
3.2
Wind Variable Wind from ENE

Today
High -- | Low -- °F
--% Chance of Precip.
Yesterday
High -- | Low -- °F
Precip. -- in
6:47 AM 6:26 PM
Full, 99% visible
Pressure 30.39 in
Visibility 10.0 miles
Clouds Scattered Clouds 4300 ft
Windchill 47 °F
Dew Point 38 °F
Humidity 68%
Rainfall in
Snow Depth Not available.
UV 0 out of 12
Pollen 9.30 out of 12
Air Quality Not available.
Flu Activity Not available.
METAR KJYL 062235Z AUTO 02003KT 10SM SCT043 09/04 A3039 RMK AO2 T00870035

More Conditions Fewer Conditions

Pressure 30.39 in
Visibility 10.0 miles
Clouds Scattered Clouds 4300 ft
Windchill 47 °F
Dew Point 38 °F
Humidity 68%
Rainfall in
Snow Depth Not available.
UV 0 out of 12
Pollen 9.30 out of 12
Air Quality Not available.
Flu Activity Not available.
METAR KJYL 062235Z AUTO 02003KT 10SM SCT043 09/04 A3039 RMK AO2 T00870035

More Conditions Fewer Conditions

10-Day Weather Forecast

Almanac

Astronomy

Mar. 06, 2015 Rise Set
Actual Time
Civil Twilight
Nautical Twilight
Astronomical Twilight
Moon
Length of Visible Light
Length of Day
Tomorrow will be .
, % of the Moon is Illuminated

Today's Extremes

State Highs State Lows

Community

WunderPhotos

Upload Photos

1,803,431 photos uploaded!

WunderBlogs® & News

Nearby

Air Quality

  Air Quality AQ Index Pollutant
Not available.

Snow Depth

Station Depth Elevation

Earthquake Activity

City Distance Mag. Time & Date
Minimum magnitude displayed is 2.5.

Coastal Water Temperatures

Place Temperature

Nearby Weather Stations

Freeze Warning
Statement as of 3:05 PM EST on March 06, 2015

... Freeze warning remains in effect from 8 PM this evening to
9 am EST Saturday...

* temperatures... mid to upper 20s.

* Freeze duration... 8 to 10 hours with scattered frost.

* Freeze impacts... freezing temperatures could kill sensitive
vegetation and damage unprotected outdoor plumbing.

Precautionary/preparedness actions...

Be prepared to protect sensitive outdoor vegetation and cover
unprotected outdoor plumbing.